createdAt,value
2018-11-22T00:08:24.352Z,96797.31
2018-11-22T00:11:32.923Z,96794.57
2018-11-22T00:14:01.873Z,96787.78
2018-11-22T00:16:49.616Z,96792.04
2018-11-22T00:19:18.264Z,96794.09
2018-11-22T00:22:06.032Z,96799.23
2018-11-22T00:24:34.916Z,96801.87
2018-11-22T00:27:03.848Z,96798.08
2018-11-22T00:33:01.847Z,96796.41
2018-11-22T00:35:32.174Z,96799.64
2018-11-22T00:38:00.829Z,96803.17
2018-11-22T00:40:29.684Z,96803.16
2018-11-22T00:43:17.538Z,96803.44
2018-11-22T00:45:46.245Z,96801.59
2018-11-22T00:48:14.943Z,96807.25
2018-11-22T00:51:02.703Z,96808.48
2018-11-22T00:53:50.481Z,96810.02
2018-11-22T00:56:38.314Z,96807.26
2018-11-22T00:59:26.339Z,96810.18
2018-11-22T01:05:03.128Z,96810.75
2018-11-22T01:10:41.961Z,96819.21
2018-11-22T01:13:30.722Z,96817.75
2018-11-22T01:15:59.563Z,96824.28
2018-11-22T01:18:28.920Z,96824.28
2018-11-22T01:20:58.262Z,96824.56
2018-11-22T01:23:46.076Z,96826.02
2018-11-22T01:26:14.728Z,96827.08
2018-11-22T01:28:43.489Z,96832.23
2018-11-22T01:31:12.309Z,96832.94
2018-11-22T01:34:00.168Z,96830.50
2018-11-22T01:36:28.814Z,96832.23
2018-11-22T01:39:16.585Z,96830.07
2018-11-22T01:44:19.694Z,96830.19
2018-11-22T01:46:48.331Z,96818.70
2018-11-22T01:49:17.007Z,96820.97
2018-11-22T01:51:45.646Z,96813.84
2018-11-22T01:54:14.340Z,96823.67
2018-11-22T01:56:44.653Z,96820.83
2018-11-22T01:59:33.237Z,96821.80
2018-11-22T02:04:51.283Z,96816.05
2018-11-22T02:07:39.019Z,96818.02
2018-11-22T02:10:09.656Z,96811.89
2018-11-22T02:12:57.336Z,96813.16
2018-11-22T02:15:27.897Z,96812.47
2018-11-22T02:18:15.663Z,96814.14
2018-11-22T02:23:19.586Z,96802.91
2018-11-22T02:26:07.465Z,96805.70
2018-11-22T02:28:55.256Z,96809.24
2018-11-22T02:31:24.090Z,96804.87
2018-11-22T02:34:11.815Z,96805.46
2018-11-22T02:36:40.433Z,96805.13
2018-11-22T02:39:10.695Z,96807.00
2018-11-22T02:41:39.400Z,96807.02
2018-11-22T02:44:09.019Z,96806.55
2018-11-22T02:46:37.616Z,96806.61
2018-11-22T02:49:25.435Z,96806.42
2018-11-22T02:51:54.027Z,96813.91
2018-11-22T02:54:41.742Z,96815.29
2018-11-22T02:57:29.450Z,96812.35
2018-11-22T02:59:58.080Z,96813.33
2018-11-22T03:02:26.921Z,96811.41
2018-11-22T03:04:58.355Z,96810.65
2018-11-22T03:07:28.986Z,96815.02
2018-11-22T03:09:57.632Z,96819.98
2018-11-22T03:12:26.218Z,96820.48
2018-11-22T03:14:54.819Z,96823.09
2018-11-22T03:17:23.458Z,96822.59
2018-11-22T03:19:52.040Z,96821.99
2018-11-22T03:22:22.095Z,96817.70
2018-11-22T03:24:53.219Z,96825.83
2018-11-22T03:27:22.452Z,96821.03
2018-11-22T03:29:51.093Z,96824.05
2018-11-22T03:32:19.688Z,96821.48
2018-11-22T03:34:48.315Z,96821.02
2018-11-22T03:37:17.999Z,96826.56
2018-11-22T03:39:48.952Z,96827.96
2018-11-22T03:42:18.564Z,96819.99
2018-11-22T03:44:47.193Z,96822.78
2018-11-22T03:47:15.905Z,96820.45
2018-11-22T03:50:04.871Z,96826.29
2018-11-22T03:52:54.041Z,96824.43
2018-11-22T03:55:41.805Z,96827.66
2018-11-22T03:58:10.671Z,96825.43
2018-11-22T04:00:58.574Z,96824.77
2018-11-22T04:03:27.216Z,96829.72
2018-11-22T04:06:14.884Z,96825.34
2018-11-22T04:09:03.915Z,96825.14
2018-11-22T04:11:35.648Z,96832.17
2018-11-22T04:14:23.459Z,96825.72
2018-11-22T04:16:52.159Z,96825.85
2018-11-22T04:19:20.791Z,96829.63
2018-11-22T04:21:49.386Z,96827.58
2018-11-22T04:24:18.034Z,96828.44
2018-11-22T04:27:05.770Z,96832.45
2018-11-22T04:29:34.422Z,96833.91
2018-11-22T04:32:22.135Z,96833.62
2018-11-22T04:35:09.924Z,96838.10
2018-11-22T04:37:39.349Z,96834.03
2018-11-22T04:43:03.840Z,96822.22
2018-11-22T04:45:32.644Z,96832.05
2018-11-22T04:48:20.404Z,96831.36
2018-11-22T04:50:49.048Z,96832.73
2018-11-22T04:53:36.775Z,96833.13
2018-11-22T04:56:05.614Z,96831.65
2018-11-22T04:58:53.719Z,96830.21
2018-11-22T05:01:25.404Z,96828.94
2018-11-22T05:04:34.321Z,96829.63
2018-11-22T05:07:21.754Z,96834.30
2018-11-22T05:09:50.417Z,96827.96
2018-11-22T05:12:19.346Z,96829.52
2018-11-22T05:15:07.128Z,96832.44
2018-11-22T05:17:54.890Z,96828.25
2018-11-22T05:20:24.180Z,96831.65
2018-11-22T05:22:53.885Z,96834.30
2018-11-22T05:25:41.776Z,96833.59
2018-11-22T05:31:19.852Z,96827.76
2018-11-22T05:34:09.390Z,96829.80
2018-11-22T05:36:38.804Z,96832.99
2018-11-22T05:39:08.846Z,96832.91
2018-11-22T05:41:37.514Z,96831.58
2018-11-22T05:44:07.538Z,96828.42
2018-11-22T05:52:19.770Z,96838.69
2018-11-22T05:55:08.047Z,96837.52
2018-11-22T05:57:57.158Z,96839.18
2018-11-22T06:00:27.929Z,96842.19
2018-11-22T06:03:00.460Z,96843.28
2018-11-22T06:05:48.998Z,96840.14
2018-11-22T06:08:21.696Z,96843.86
2018-11-22T06:10:49.982Z,96842.36
2018-11-22T06:13:18.793Z,96842.84
2018-11-22T06:15:47.637Z,96843.52
2018-11-22T06:18:16.294Z,96845.63
2018-11-22T06:21:04.129Z,96849.16
2018-11-22T06:23:52.043Z,96841.94
2018-11-22T06:26:39.784Z,96841.06
2018-11-22T06:29:08.475Z,96843.50
2018-11-22T06:31:56.311Z,96839.14
2018-11-22T06:34:26.553Z,96832.20
2018-11-22T06:37:14.311Z,96835.60
2018-11-22T06:39:43.073Z,96839.22
2018-11-22T06:42:30.893Z,96841.37
2018-11-22T06:45:00.656Z,96844.59
2018-11-22T06:53:32.930Z,96850.05
2018-11-22T06:56:20.704Z,96850.66
2018-11-22T06:58:49.339Z,96848.05
2018-11-22T07:01:18.104Z,96849.81
2018-11-22T07:03:47.063Z,96856.26
2018-11-22T07:09:10.172Z,96858.22
2018-11-22T07:11:39.664Z,96850.14
2018-11-22T07:14:08.867Z,96854.71
2018-11-22T07:16:37.698Z,96856.95
2018-11-22T07:19:25.676Z,96858.50
2018-11-22T07:21:54.329Z,96868.23
2018-11-22T07:24:22.974Z,96866.61
2018-11-22T07:26:54.335Z,96867.28
2018-11-22T07:29:43.406Z,96864.23
2018-11-22T07:32:12.007Z,96864.64
2018-11-22T07:34:40.645Z,96865.05
2018-11-22T07:37:09.420Z,96865.82
2018-11-22T07:39:38.257Z,96868.92
2018-11-22T07:42:26.074Z,96866.75
2018-11-22T07:44:55.208Z,96870.54
2018-11-22T07:47:25.688Z,96863.28
2018-11-22T07:50:15.272Z,96869.19
2018-11-22T07:55:51.795Z,96862.47
2018-11-22T07:58:20.463Z,96871.34
2018-11-22T08:00:49.068Z,96871.30
2018-11-22T08:03:17.677Z,96863.09
2018-11-22T08:05:46.323Z,96865.72
2018-11-22T08:08:15.007Z,96856.32
2018-11-22T08:10:43.616Z,96860.27
2018-11-22T08:13:12.613Z,96863.59
2018-11-22T08:15:44.083Z,96862.10
2018-11-22T08:18:12.797Z,96865.91
2018-11-22T08:20:41.456Z,96867.46
2018-11-22T08:23:10.561Z,96865.39
2018-11-22T08:25:39.485Z,96865.62
2018-11-22T08:28:27.249Z,96863.39
2018-11-22T08:30:55.884Z,96873.18
2018-11-22T08:33:25.031Z,96865.20
2018-11-22T08:36:14.728Z,96865.58
2018-11-22T08:39:04.588Z,96869.86
2018-11-22T08:41:53.279Z,96864.06
2018-11-22T08:44:22.151Z,96869.58
2018-11-22T08:47:12.256Z,96876.32
2018-11-22T08:49:57.705Z,96875.70
2018-11-22T08:52:26.451Z,96880.75
2018-11-22T08:54:55.293Z,96879.58
2018-11-22T08:57:24.123Z,96883.23
2018-11-22T08:59:53.081Z,96884.19
2018-11-22T09:02:45.353Z,96888.47
2018-11-22T09:05:12.503Z,96884.34
2018-11-22T09:08:01.162Z,96888.50
2018-11-22T09:10:30.256Z,96889.48
2018-11-22T09:13:18.030Z,96892.09
2018-11-22T09:15:46.680Z,96893.64
2018-11-22T09:18:34.488Z,96891.95
2018-11-22T09:21:22.283Z,96898.50
2018-11-22T09:24:10.055Z,96895.08
2018-11-22T09:26:38.858Z,96904.88
2018-11-22T09:29:26.685Z,96903.33
2018-11-22T09:32:14.363Z,96903.16
2018-11-22T09:35:02.913Z,96907.05
2018-11-22T09:37:51.297Z,96908.61
2018-11-22T09:40:22.524Z,96906.19
2018-11-22T09:42:51.353Z,96907.89
2018-11-22T09:45:40.418Z,96908.77
2018-11-22T09:48:09.067Z,96910.07
2018-11-22T09:50:37.734Z,96907.23
2018-11-22T09:53:07.780Z,96896.52
2018-11-22T09:55:37.124Z,96896.12
2018-11-22T09:58:07.954Z,96894.30
2018-11-22T10:00:36.570Z,96894.86
2018-11-22T10:03:05.462Z,96891.73
2018-11-22T10:05:53.262Z,96889.29
2018-11-22T10:08:21.763Z,96886.34
2018-11-22T10:10:51.799Z,96883.02
2018-11-22T10:13:21.256Z,96889.11
2018-11-22T10:15:49.865Z,96888.61
2018-11-22T10:18:18.728Z,96887.17
2018-11-22T10:21:06.502Z,96891.17
2018-11-22T10:23:35.187Z,96884.40
2018-11-22T10:26:03.746Z,96888.89
2018-11-22T10:28:32.620Z,96888.76
2018-11-22T10:31:01.477Z,96884.07
2018-11-22T10:33:49.237Z,96887.53
2018-11-22T10:36:17.833Z,96886.02
2018-11-22T10:38:46.495Z,96885.15
2018-11-22T10:41:34.288Z,96892.27
2018-11-22T10:44:02.940Z,96886.36
2018-11-22T10:46:31.635Z,96892.39
2018-11-22T10:49:00.366Z,96889.41
2018-11-22T10:51:29.056Z,96891.87
2018-11-22T10:53:57.665Z,96889.19
2018-11-22T10:56:45.499Z,96886.49
2018-11-22T10:59:14.111Z,96887.67
2018-11-22T11:02:03.126Z,96895.11
2018-11-22T11:04:52.000Z,96892.41
2018-11-22T11:07:40.254Z,96887.62
2018-11-22T11:10:27.972Z,96885.57
2018-11-22T11:13:15.770Z,96880.70
2018-11-22T11:16:03.458Z,96879.14
2018-11-22T11:18:32.061Z,96883.38
2018-11-22T11:21:00.656Z,96874.23
2018-11-22T11:23:30.638Z,96878.34
2018-11-22T11:26:00.758Z,96869.28
2018-11-22T11:28:29.410Z,96874.77
2018-11-22T11:30:58.013Z,96872.28
2018-11-22T11:33:26.665Z,96868.89
2018-11-22T11:35:55.267Z,96874.71
2018-11-22T11:38:24.205Z,96868.69
2018-11-22T11:41:11.875Z,96868.75
2018-11-22T11:43:59.646Z,96869.30
2018-11-22T11:46:28.345Z,96873.77
2018-11-22T11:49:16.163Z,96868.30
2018-11-22T11:51:44.816Z,96867.60
2018-11-22T11:54:33.965Z,96862.89
2018-11-22T11:57:04.931Z,96858.66
2018-11-22T11:59:52.990Z,96872.78
2018-11-22T12:02:40.784Z,96864.74
2018-11-22T12:05:09.740Z,96859.13
2018-11-22T12:07:57.512Z,96861.42
2018-11-22T12:10:45.769Z,96864.31
2018-11-22T12:13:14.743Z,96855.42
2018-11-22T12:15:43.425Z,96858.88
2018-11-22T12:18:36.595Z,96852.08
2018-11-22T12:20:59.884Z,96853.58
2018-11-22T12:23:28.486Z,96852.02
2018-11-22T12:25:57.181Z,96854.95
2018-11-22T12:28:44.993Z,96844.84
2018-11-22T12:31:33.866Z,96847.84
2018-11-22T12:34:41.627Z,96849.39
2018-11-22T12:37:49.170Z,96846.25
2018-11-22T12:43:47.022Z,96848.00
2018-11-22T12:46:15.679Z,96848.20
2018-11-22T12:48:45.430Z,96844.87
2018-11-22T12:51:16.072Z,96847.25
2018-11-22T12:54:04.269Z,96847.52
2018-11-22T12:56:52.213Z,96844.74
2018-11-22T12:59:40.654Z,96838.84
2018-11-22T13:07:52.138Z,96846.77
2018-11-22T13:12:56.125Z,96840.64
2018-11-22T13:15:24.764Z,96846.32
2018-11-22T13:17:53.385Z,96841.42
2018-11-22T13:20:23.302Z,96852.45
2018-11-22T13:23:12.230Z,96848.84
2018-11-22T13:25:59.995Z,96846.25
2018-11-22T13:28:28.637Z,96854.02
2018-11-22T13:30:57.660Z,96850.16
2018-11-22T13:33:45.400Z,96854.82
2018-11-22T13:36:14.161Z,96855.06
2018-11-22T13:38:43.002Z,96854.82
2018-11-22T13:41:30.765Z,96857.13
2018-11-22T13:43:59.372Z,96856.36
2018-11-22T13:46:47.175Z,96854.30
2018-11-22T13:49:15.789Z,96849.92
2018-11-22T13:51:44.796Z,96851.45
2018-11-22T13:54:13.307Z,96857.62
2018-11-22T13:57:00.969Z,96858.16
2018-11-22T13:59:49.287Z,96853.78
2018-11-22T14:02:17.920Z,96856.61
2018-11-22T14:04:46.574Z,96860.22
2018-11-22T14:07:15.484Z,96858.38
2018-11-22T14:10:03.262Z,96856.60
2018-11-22T14:12:31.907Z,96863.52
2018-11-22T14:15:00.514Z,96865.03
2018-11-22T14:17:48.315Z,96860.17
2018-11-22T14:20:18.755Z,96861.72
2018-11-22T14:23:06.693Z,96859.16
2018-11-22T14:28:43.329Z,96850.92
2018-11-22T14:31:32.406Z,96854.04
2018-11-22T14:34:22.378Z,96853.25
2018-11-22T14:36:50.970Z,96850.19
2018-11-22T14:39:38.752Z,96854.30
2018-11-22T14:42:07.379Z,96849.64
2018-11-22T14:44:55.154Z,96851.20
2018-11-22T14:47:25.640Z,96859.95
2018-11-22T14:49:55.075Z,96862.03
2018-11-22T14:52:23.682Z,96872.27
2018-11-22T14:54:52.365Z,96862.69
2018-11-22T14:57:40.186Z,96862.85
2018-11-22T15:00:12.871Z,96864.25
2018-11-22T15:03:01.652Z,96866.25
2018-11-22T15:05:50.128Z,96872.62
2018-11-22T15:08:18.875Z,96874.63
2018-11-22T15:11:06.695Z,96868.16
2018-11-22T15:13:54.799Z,96869.02
2018-11-22T15:16:42.636Z,96875.58
2018-11-22T15:19:12.873Z,96873.55
2018-11-22T15:21:42.009Z,96876.27
2018-11-22T15:24:10.853Z,96882.21
2018-11-22T15:26:58.605Z,96878.47
2018-11-22T15:29:27.200Z,96877.58
2018-11-22T15:31:56.046Z,96879.08
2018-11-22T15:34:43.907Z,96886.62
2018-11-22T15:37:32.862Z,96890.27
2018-11-22T15:40:02.221Z,96885.41
2018-11-22T15:42:30.869Z,96885.41
2018-11-22T15:45:18.696Z,96880.38
2018-11-22T15:47:47.478Z,96888.39
2018-11-22T15:50:36.301Z,96882.68
2018-11-22T15:53:24.366Z,96882.81
2018-11-22T15:55:53.196Z,96890.84
2018-11-22T15:58:24.323Z,96898.06
2018-11-22T16:00:52.836Z,96899.22
2018-11-22T16:03:40.590Z,96907.81
2018-11-22T16:06:09.527Z,96907.88
2018-11-22T16:08:39.691Z,96915.38
2018-11-22T16:11:14.745Z,96919.50
2018-11-22T16:13:37.696Z,96914.13
2018-11-22T16:16:26.748Z,96919.63
2018-11-22T16:18:57.127Z,96916.39
2018-11-22T16:21:26.136Z,96915.12
2018-11-22T16:23:54.731Z,96914.55
2018-11-22T16:26:23.340Z,96916.19
2018-11-22T16:28:54.280Z,96908.72
2018-11-22T16:31:22.933Z,96914.38
2018-11-22T16:34:10.696Z,96914.70
2018-11-22T16:36:39.338Z,96917.14
2018-11-22T16:39:09.471Z,96925.05
2018-11-22T16:41:39.038Z,96924.14
2018-11-22T16:44:27.588Z,96916.15
2018-11-22T16:46:56.243Z,96917.39
2018-11-22T16:49:43.972Z,96917.14
2018-11-22T16:52:12.655Z,96914.42
2018-11-22T16:55:00.630Z,96916.54
2018-11-22T16:57:48.350Z,96917.35
2018-11-22T17:00:40.052Z,96917.88
2018-11-22T17:03:10.592Z,96919.42
2018-11-22T17:05:58.363Z,96923.34
2018-11-22T17:08:26.960Z,96926.81
2018-11-22T17:10:55.680Z,96924.78
2018-11-22T17:13:24.290Z,96919.94
2018-11-22T17:15:54.837Z,96922.80
2018-11-22T17:18:24.058Z,96924.77
2018-11-22T17:21:11.878Z,96925.51
2018-11-22T17:23:40.801Z,96927.08
2018-11-22T17:26:29.611Z,96921.72
2018-11-22T17:28:59.141Z,96927.26
2018-11-22T17:31:47.328Z,96922.16
2018-11-22T17:34:35.705Z,96928.77
2018-11-22T17:37:23.466Z,96929.29
2018-11-22T17:40:11.250Z,96933.70
2018-11-22T17:42:39.996Z,96932.81
2018-11-22T17:45:30.085Z,96929.73
2018-11-22T17:47:58.941Z,96935.00
2018-11-22T17:50:29.200Z,96937.84
2018-11-22T17:53:17.007Z,96928.84
2018-11-22T17:55:45.685Z,96927.64
2018-11-22T17:58:15.011Z,96919.84
2018-11-22T18:01:02.795Z,96922.72
2018-11-22T18:03:50.745Z,96930.84
2018-11-22T18:09:32.951Z,96938.15
2018-11-22T18:12:21.331Z,96934.78
2018-11-22T18:14:50.298Z,96937.53
2018-11-22T18:17:38.879Z,96936.00
2018-11-22T18:20:13.076Z,96937.69
2018-11-22T18:23:00.834Z,96938.30
2018-11-22T18:28:44.481Z,96946.56
2018-11-22T18:31:32.937Z,96947.17
2018-11-22T18:34:20.741Z,96942.86
2018-11-22T18:36:49.586Z,96952.24
2018-11-22T18:39:18.375Z,96951.46
2018-11-22T18:44:40.779Z,96950.96
2018-11-22T18:47:28.594Z,96954.17
2018-11-22T18:50:16.426Z,96963.05
2018-11-22T18:53:04.273Z,96962.07
2018-11-22T18:55:33.033Z,96964.60
2018-11-22T18:58:20.994Z,96968.22
2018-11-22T19:01:08.887Z,96964.69
2018-11-22T19:03:56.664Z,96970.58
2018-11-22T19:06:44.604Z,96976.01
2018-11-22T19:09:14.175Z,96974.27
2018-11-22T19:11:43.095Z,96974.84
2018-11-22T19:14:11.906Z,96973.47
2018-11-22T19:16:59.671Z,96977.27
2018-11-22T19:19:47.457Z,96977.55
2018-11-22T19:22:35.307Z,96978.53
2018-11-22T19:25:04.169Z,96978.25
2018-11-22T19:27:52.580Z,96977.09
2018-11-22T19:30:45.047Z,96973.86
2018-11-22T19:33:32.897Z,96975.59
2018-11-22T19:36:01.844Z,96978.02
2018-11-22T19:38:49.579Z,96976.67
2018-11-22T19:46:33.106Z,96981.35
2018-11-22T19:49:20.825Z,96983.20
2018-11-22T19:52:08.614Z,96982.03
2018-11-22T19:54:37.527Z,96986.30
2018-11-22T19:57:25.476Z,96977.48
2018-11-22T19:59:54.354Z,96984.87
2018-11-22T20:02:24.659Z,96984.28
2018-11-22T20:04:53.391Z,96995.57
2018-11-22T20:07:41.212Z,96991.37
2018-11-22T20:10:33.099Z,96994.02
2018-11-22T20:13:21.019Z,96989.63
2018-11-22T20:18:24.127Z,96998.38
2018-11-22T20:21:11.802Z,96995.70
2018-11-22T20:23:40.689Z,96995.48
2018-11-22T20:26:28.632Z,96996.37
2018-11-22T20:28:57.461Z,96992.91
2018-11-22T20:31:45.487Z,96990.36
2018-11-22T20:34:14.366Z,96993.16
2018-11-22T20:36:43.796Z,96998.63
2018-11-22T20:39:31.615Z,96990.61
2018-11-22T20:42:19.385Z,96993.41
2018-11-22T20:44:48.469Z,96985.57
2018-11-22T20:47:18.338Z,96985.67
2018-11-22T20:49:48.275Z,96987.94
2018-11-22T20:52:17.936Z,96990.14
2018-11-22T20:55:05.699Z,96991.84
2018-11-22T20:57:42.032Z,96983.67
2018-11-22T21:00:12.996Z,96997.87
2018-11-22T21:05:30.573Z,96994.08
2018-11-22T21:08:18.535Z,96989.70
2018-11-22T21:11:06.674Z,96986.55
2018-11-22T21:13:54.715Z,96980.08
2018-11-22T21:16:23.795Z,96981.81
2018-11-22T21:18:52.675Z,96977.77
2018-11-22T21:21:40.474Z,96978.67
2018-11-22T21:24:09.930Z,96978.32
2018-11-22T21:26:58.799Z,96976.46
2018-11-22T21:29:46.531Z,96985.93
2018-11-22T21:32:15.402Z,96989.97
2018-11-22T21:34:44.230Z,96988.85
2018-11-22T21:37:32.888Z,96986.05
2018-11-22T21:40:20.662Z,96987.27
2018-11-22T21:42:50.623Z,96982.31
2018-11-22T21:45:38.401Z,96977.98
2018-11-22T21:48:26.281Z,96976.05
2018-11-22T21:50:55.145Z,96978.23
2018-11-22T21:53:43.601Z,96981.50
2018-11-22T21:56:12.462Z,96985.84
2018-11-22T21:59:00.264Z,96994.78
2018-11-22T22:01:47.912Z,96995.91
2018-11-22T22:04:35.702Z,96989.11
2018-11-22T22:09:58.730Z,96994.88
2018-11-22T22:12:47.152Z,96990.16
2018-11-22T22:15:36.035Z,96987.80
2018-11-22T22:18:23.859Z,96988.06
2018-11-22T22:21:11.649Z,96991.86
2018-11-22T22:23:59.635Z,96987.55
2018-11-22T22:26:47.352Z,96996.28
2018-11-22T22:29:35.199Z,96992.61
2018-11-22T22:32:04.075Z,96992.95
2018-11-22T22:34:51.931Z,96999.86
2018-11-22T22:37:39.757Z,96994.97
2018-11-22T22:40:11.267Z,96988.91
2018-11-22T22:42:40.739Z,96985.10
2018-11-22T22:45:10.023Z,96989.23
2018-11-22T22:47:39.134Z,96987.73
2018-11-22T22:50:28.656Z,96992.98
2018-11-22T22:52:58.685Z,96995.09
2018-11-22T22:55:46.555Z,96995.56
2018-11-22T22:58:15.470Z,96993.62
2018-11-22T23:01:05.580Z,96991.47
2018-11-22T23:03:53.791Z,96990.37
2018-11-22T23:06:41.755Z,96989.75
2018-11-22T23:09:13.476Z,96990.22
2018-11-22T23:12:02.895Z,96994.85
2018-11-22T23:14:52.093Z,96995.97
2018-11-22T23:17:40.780Z,97000.11
2018-11-22T23:20:12.021Z,97000.02
2018-11-22T23:22:41.117Z,96995.96
2018-11-22T23:25:10.912Z,96997.91
2018-11-22T23:33:44.793Z,97002.55
2018-11-22T23:36:13.643Z,96996.49
2018-11-22T23:39:02.100Z,96996.77
2018-11-22T23:41:31.332Z,96992.69
2018-11-22T23:44:00.139Z,96992.45
2018-11-22T23:46:29.083Z,96991.14
2018-11-22T23:48:57.974Z,96995.31
2018-11-22T23:51:27.004Z,96997.12
2018-11-22T23:54:15.882Z,96999.69
2018-11-22T23:56:45.557Z,96991.61
2018-11-22T23:59:33.348Z,96997.08
